createdAt,value
2022-10-18T00:03:02.359Z,19.70
2022-10-18T00:06:09.025Z,22.80
2022-10-18T00:09:13.984Z,19.30
2022-10-18T00:12:16.898Z,22.33
2022-10-18T00:15:21.086Z,18.47
2022-10-18T00:18:24.147Z,19.63
2022-10-18T00:21:27.902Z,32.10
2022-10-18T00:24:32.161Z,18.00
2022-10-18T00:27:35.844Z,23.95
2022-10-18T00:30:39.135Z,23.50
2022-10-18T00:33:43.286Z,20.30
2022-10-18T00:36:46.555Z,18.70
2022-10-18T00:39:53.777Z,19.30
2022-10-18T00:42:56.688Z,19.48
2022-10-18T00:45:59.775Z,19.75
2022-10-18T00:49:12.869Z,23.43
2022-10-18T00:52:19.598Z,21.07
2022-10-18T00:55:24.405Z,20.83
2022-10-18T00:58:27.685Z,17.95
2022-10-18T01:01:31.074Z,21.93
2022-10-18T01:04:34.652Z,27.93
2022-10-18T01:08:17.139Z,28.80
2022-10-18T01:11:48.434Z,28.98
2022-10-18T01:15:00.445Z,28.90
2022-10-18T01:18:16.890Z,24.92
2022-10-18T01:21:39.483Z,18.75
2022-10-18T01:28:39.015Z,17.08
2022-10-18T01:31:47.995Z,18.77
2022-10-18T01:34:53.991Z,21.45
2022-10-18T01:38:01.262Z,17.52
2022-10-18T01:41:06.394Z,17.45
2022-10-18T01:44:15.660Z,18.40
2022-10-18T01:47:21.340Z,18.08
2022-10-18T01:50:30.872Z,19.42
2022-10-18T01:53:35.946Z,22.13
2022-10-18T01:56:47.194Z,22.70
2022-10-18T01:59:57.520Z,20.50
2022-10-18T02:03:08.233Z,21.98
2022-10-18T02:06:21.332Z,18.35
2022-10-18T02:09:38.563Z,23.08
2022-10-18T02:12:45.308Z,28.88
2022-10-18T02:15:52.483Z,22.70
2022-10-18T02:19:02.210Z,22.88
2022-10-18T02:22:06.940Z,20.75
2022-10-18T02:25:18.274Z,19.08
2022-10-18T02:28:21.749Z,19.35
2022-10-18T02:31:31.729Z,19.27
2022-10-18T02:34:41.734Z,22.25
2022-10-18T02:37:46.018Z,17.17
2022-10-18T02:40:49.094Z,20.00
2022-10-18T02:43:52.006Z,16.73
2022-10-18T02:46:55.063Z,23.15
2022-10-18T02:49:59.290Z,18.90
2022-10-18T02:53:02.237Z,17.42
2022-10-18T02:56:06.311Z,22.33
2022-10-18T02:59:09.392Z,22.60
2022-10-18T03:02:12.567Z,20.48
2022-10-18T03:05:17.179Z,19.27
2022-10-18T03:08:22.643Z,25.73
2022-10-18T03:11:25.687Z,21.90
2022-10-18T03:14:28.615Z,19.05
2022-10-18T03:17:31.772Z,20.00
2022-10-18T03:20:36.705Z,18.73
2022-10-18T03:23:41.685Z,24.35
2022-10-18T03:26:44.607Z,22.73
2022-10-18T03:29:47.488Z,19.65
2022-10-18T03:32:50.407Z,20.70
2022-10-18T03:35:54.637Z,21.23
2022-10-18T03:38:57.541Z,21.40
2022-10-18T03:42:00.458Z,21.05
2022-10-18T03:45:03.409Z,21.73
2022-10-18T03:48:07.247Z,23.48
2022-10-18T03:51:11.541Z,19.23
2022-10-18T03:54:14.440Z,19.40
2022-10-18T03:57:17.500Z,24.33
2022-10-18T04:00:20.585Z,23.35
2022-10-18T04:03:24.289Z,24.90
2022-10-18T04:06:28.519Z,19.02
2022-10-18T04:09:31.748Z,19.48
2022-10-18T04:12:35.076Z,22.02
2022-10-18T04:15:38.147Z,18.60
2022-10-18T04:18:41.080Z,18.95
2022-10-18T04:21:45.346Z,20.67
2022-10-18T04:24:48.283Z,20.25
2022-10-18T04:27:51.314Z,21.60
2022-10-18T04:30:54.802Z,19.75
2022-10-18T04:33:57.750Z,17.17
2022-10-18T04:37:01.984Z,20.75
2022-10-18T04:40:05.958Z,17.80
2022-10-18T04:43:08.869Z,20.85
2022-10-18T04:46:11.775Z,17.60
2022-10-18T04:49:15.202Z,19.58
2022-10-18T04:52:20.163Z,18.25
2022-10-18T04:55:23.065Z,18.40
2022-10-18T04:58:26.059Z,18.38
2022-10-18T05:01:29.149Z,14.15
2022-10-18T05:04:32.315Z,15.52
2022-10-18T05:07:36.583Z,14.32
2022-10-18T05:10:39.566Z,13.18
2022-10-18T05:13:44.128Z,13.32
2022-10-18T05:16:48.982Z,15.25
2022-10-18T05:19:52.014Z,14.75
2022-10-18T05:22:56.278Z,15.82
2022-10-18T05:26:04.099Z,13.82
2022-10-18T05:29:07.100Z,21.05
2022-10-18T05:32:10.476Z,14.93
2022-10-18T05:35:13.411Z,15.20
2022-10-18T05:38:18.213Z,16.63
2022-10-18T05:41:21.180Z,19.52
2022-10-18T05:44:24.490Z,12.95
2022-10-18T05:47:27.458Z,18.88
2022-10-18T05:50:30.523Z,20.33
2022-10-18T05:53:37.580Z,19.55
2022-10-18T05:56:41.536Z,14.30
2022-10-18T05:59:45.292Z,17.30
2022-10-18T06:02:48.284Z,14.77
2022-10-18T06:05:51.214Z,15.23
2022-10-18T06:08:55.530Z,18.75
2022-10-18T06:11:58.578Z,19.80
2022-10-18T06:15:01.537Z,17.35
2022-10-18T06:18:04.615Z,15.65
2022-10-18T06:21:08.481Z,17.20
2022-10-18T06:24:13.160Z,14.27
2022-10-18T06:27:16.067Z,15.73
2022-10-18T06:30:19.007Z,16.92
2022-10-18T06:33:22.149Z,15.63
2022-10-18T06:36:25.527Z,14.65
2022-10-18T06:39:30.742Z,19.02
2022-10-18T06:42:33.937Z,15.63
2022-10-18T06:45:37.182Z,15.38
2022-10-18T06:48:40.553Z,14.98
2022-10-18T06:51:44.461Z,15.88
2022-10-18T06:54:48.849Z,16.00
2022-10-18T06:57:51.792Z,17.13
2022-10-18T07:00:54.761Z,17.33
2022-10-18T07:03:58.132Z,16.95
2022-10-18T07:07:01.111Z,18.55
2022-10-18T07:10:07.141Z,17.27
2022-10-18T07:16:35.067Z,14.00
2022-10-18T07:19:38.023Z,16.23
2022-10-18T07:22:40.935Z,18.27
2022-10-18T07:25:45.231Z,18.77
2022-10-18T07:28:50.782Z,15.63
2022-10-18T07:31:53.905Z,16.50
2022-10-18T07:34:56.878Z,17.38
2022-10-18T07:37:59.869Z,16.02
2022-10-18T07:41:07.235Z,22.05
2022-10-18T07:44:10.958Z,18.00
2022-10-18T07:47:15.090Z,17.90
2022-10-18T07:50:18.111Z,22.98
2022-10-18T07:53:21.102Z,17.77
2022-10-18T07:56:25.341Z,23.63
2022-10-18T07:59:28.294Z,22.10
2022-10-18T08:02:31.237Z,22.80
2022-10-18T08:05:34.286Z,21.55
2022-10-18T08:08:38.826Z,21.67
2022-10-18T08:11:43.082Z,20.83
2022-10-18T08:14:47.004Z,18.83
2022-10-18T08:17:49.924Z,18.35
2022-10-18T08:20:52.900Z,16.92
2022-10-18T08:23:55.978Z,17.20
2022-10-18T08:27:00.225Z,16.15
2022-10-18T08:30:03.207Z,16.67
2022-10-18T08:33:07.031Z,18.13
2022-10-18T08:36:13.623Z,17.10
2022-10-18T08:39:16.799Z,17.55
2022-10-18T08:42:39.990Z,16.15
2022-10-18T08:45:44.230Z,16.33
2022-10-18T08:48:51.203Z,18.67
2022-10-18T08:51:55.773Z,16.95
2022-10-18T08:55:04.744Z,19.88
2022-10-18T08:58:18.337Z,17.27
2022-10-18T09:01:35.872Z,18.02
2022-10-18T09:04:50.951Z,16.77
2022-10-18T09:08:15.538Z,16.80
2022-10-18T09:11:44.737Z,16.50
2022-10-18T09:15:15.429Z,14.18
2022-10-18T09:18:43.733Z,14.45
2022-10-18T09:21:53.363Z,14.50
2022-10-18T09:25:08.860Z,15.20
2022-10-18T09:28:20.731Z,14.00
2022-10-18T09:31:37.266Z,15.15
2022-10-18T09:34:50.668Z,13.60
2022-10-18T09:37:59.408Z,17.42
2022-10-18T09:41:11.198Z,15.60
2022-10-18T09:44:20.516Z,17.38
2022-10-18T09:50:40.552Z,13.88
2022-10-18T09:54:00.571Z,13.25
2022-10-18T09:57:06.834Z,15.23
2022-10-18T10:00:22.445Z,22.45
2022-10-18T10:03:27.807Z,13.13
2022-10-18T10:06:34.515Z,12.18
2022-10-18T10:09:42.821Z,14.35
2022-10-18T10:12:46.739Z,15.05
2022-10-18T10:15:56.480Z,14.77
2022-10-18T10:19:01.051Z,13.75
2022-10-18T10:22:07.772Z,12.63
2022-10-18T10:25:23.588Z,14.05
2022-10-18T10:28:29.966Z,16.73
2022-10-18T10:31:34.377Z,16.08
2022-10-18T10:34:41.054Z,18.75
2022-10-18T10:37:52.641Z,22.00
2022-10-18T10:40:56.369Z,17.17
2022-10-18T10:43:59.368Z,17.00
2022-10-18T10:47:02.760Z,17.55
2022-10-18T10:50:13.813Z,17.08
2022-10-18T10:53:50.916Z,13.82
2022-10-18T10:56:59.982Z,15.77
2022-10-18T11:00:03.415Z,15.10
2022-10-18T11:03:27.818Z,15.68
2022-10-18T11:06:49.808Z,14.48
2022-10-18T11:10:01.069Z,14.73
2022-10-18T11:13:18.736Z,14.10
2022-10-18T11:16:33.451Z,17.55
2022-10-18T11:19:45.702Z,16.45
2022-10-18T11:23:01.213Z,16.65
2022-10-18T11:26:29.337Z,17.52
2022-10-18T11:29:50.316Z,14.20
2022-10-18T11:33:04.970Z,16.80
2022-10-18T11:36:14.277Z,17.95
2022-10-18T11:39:27.427Z,15.75
2022-10-18T11:42:40.255Z,14.52
2022-10-18T11:45:54.319Z,16.92
2022-10-18T11:49:19.989Z,16.60
2022-10-18T11:52:35.246Z,16.90
2022-10-18T11:55:58.450Z,18.42
2022-10-18T11:59:26.430Z,16.08
2022-10-18T12:02:57.759Z,16.80
2022-10-18T12:06:06.277Z,17.55
2022-10-18T12:09:20.819Z,13.45
2022-10-18T12:12:29.371Z,15.10
2022-10-18T12:15:37.665Z,18.92
2022-10-18T12:22:11.686Z,16.85
2022-10-18T12:25:16.750Z,17.77
2022-10-18T12:28:31.556Z,20.20
2022-10-18T12:31:41.125Z,19.75
2022-10-18T12:34:48.268Z,15.43
2022-10-18T12:38:07.153Z,17.55
2022-10-18T12:41:21.881Z,16.60
2022-10-18T12:44:32.540Z,17.20
2022-10-18T12:47:36.933Z,15.32
2022-10-18T12:50:43.281Z,15.13
2022-10-18T12:53:48.779Z,16.10
2022-10-18T12:56:51.931Z,15.25
2022-10-18T12:59:56.173Z,17.08
2022-10-18T13:04:02.381Z,16.38
2022-10-18T13:07:23.495Z,16.40
2022-10-18T13:10:36.964Z,16.58
2022-10-18T13:13:53.181Z,17.15
2022-10-18T13:17:04.764Z,19.15
2022-10-18T13:20:27.371Z,17.38
2022-10-18T13:23:43.532Z,16.83
2022-10-18T13:27:31.399Z,18.17
2022-10-18T13:30:52.468Z,15.25
2022-10-18T13:33:56.936Z,15.98
2022-10-18T13:37:02.665Z,19.65
2022-10-18T13:40:25.838Z,16.65
2022-10-18T13:44:25.018Z,16.15
2022-10-18T13:47:37.236Z,18.50
2022-10-18T13:50:44.131Z,18.00
2022-10-18T13:53:57.304Z,17.77
2022-10-18T13:57:18.138Z,15.68
2022-10-18T14:00:49.122Z,16.95
2022-10-18T14:04:35.430Z,12.75
2022-10-18T14:07:41.831Z,14.38
2022-10-18T14:11:02.488Z,14.07
2022-10-18T14:14:15.819Z,14.82
2022-10-18T14:17:31.276Z,14.35
2022-10-18T14:20:49.433Z,16.95
2022-10-18T14:24:00.171Z,19.17
2022-10-18T14:27:18.662Z,16.70
2022-10-18T14:30:24.609Z,13.50
2022-10-18T14:33:36.490Z,16.08
2022-10-18T14:36:42.934Z,18.05
2022-10-18T14:39:47.935Z,17.33
2022-10-18T14:42:50.864Z,16.35
2022-10-18T14:46:09.555Z,15.77
2022-10-18T14:49:14.255Z,15.60
2022-10-18T14:52:21.981Z,15.80
2022-10-18T14:55:28.889Z,18.10
2022-10-18T14:58:33.019Z,13.65
2022-10-18T15:01:36.462Z,15.60
2022-10-18T15:04:39.593Z,17.17
2022-10-18T15:07:42.807Z,15.60
2022-10-18T15:10:47.366Z,17.13
2022-10-18T15:13:54.558Z,15.45
2022-10-18T15:17:01.477Z,18.08
2022-10-18T15:20:22.568Z,18.92
2022-10-18T15:23:31.147Z,23.55
2022-10-18T15:26:35.400Z,17.80
2022-10-18T15:29:38.750Z,17.52
2022-10-18T15:32:51.260Z,21.10
2022-10-18T15:35:55.225Z,21.25
2022-10-18T15:39:13.143Z,19.05
2022-10-18T15:42:39.167Z,18.30
2022-10-18T15:49:38.890Z,21.88
2022-10-18T15:52:43.031Z,22.50
2022-10-18T15:55:49.528Z,24.48
2022-10-18T15:58:55.282Z,23.45
2022-10-18T16:01:58.306Z,23.25
2022-10-18T16:05:02.511Z,23.17
2022-10-18T16:08:06.037Z,26.23
2022-10-18T16:11:10.293Z,22.95
2022-10-18T16:14:14.627Z,26.87
2022-10-18T16:17:17.563Z,23.55
2022-10-18T16:20:24.435Z,24.02
2022-10-18T16:23:29.501Z,22.88
2022-10-18T16:26:32.696Z,25.92
2022-10-18T16:29:36.988Z,24.53
2022-10-18T16:32:40.778Z,23.90
2022-10-18T16:35:43.680Z,23.77
2022-10-18T16:38:47.754Z,25.43
2022-10-18T16:41:51.282Z,24.83
2022-10-18T16:44:55.523Z,19.55
2022-10-18T16:47:58.443Z,21.53
2022-10-18T16:51:01.663Z,20.70
2022-10-18T16:54:05.428Z,22.10
2022-10-18T16:57:08.475Z,19.95
2022-10-18T17:00:20.740Z,24.40
2022-10-18T17:03:23.705Z,30.10
2022-10-18T17:06:29.600Z,30.80
2022-10-18T17:09:34.791Z,44.30
2022-10-18T17:12:37.737Z,35.77
2022-10-18T17:15:42.694Z,30.37
2022-10-18T17:18:45.730Z,26.50
2022-10-18T17:21:48.653Z,26.93
2022-10-18T17:24:51.671Z,25.10
2022-10-18T17:27:54.621Z,25.67
2022-10-18T17:30:59.191Z,28.00
2022-10-18T17:34:02.752Z,25.83
2022-10-18T17:37:06.275Z,30.30
2022-10-18T17:40:10.729Z,27.67
2022-10-18T17:43:14.086Z,30.07
2022-10-18T17:46:19.454Z,25.43
2022-10-18T17:49:22.656Z,27.97
2022-10-18T17:52:25.810Z,28.50
2022-10-18T17:55:30.034Z,31.07
2022-10-18T17:58:33.643Z,22.60
2022-10-18T18:01:37.968Z,23.63
2022-10-18T18:04:40.931Z,28.27
2022-10-18T18:07:44.131Z,24.73
2022-10-18T18:13:56.411Z,27.57
2022-10-18T18:17:01.273Z,30.43
2022-10-18T18:20:05.640Z,27.53
2022-10-18T18:23:08.595Z,26.17
2022-10-18T18:26:11.864Z,25.03
2022-10-18T18:29:15.151Z,26.50
2022-10-18T18:32:19.758Z,31.17
2022-10-18T18:35:22.671Z,27.53
2022-10-18T18:38:26.130Z,30.47
2022-10-18T18:41:29.961Z,26.43
2022-10-18T18:44:33.932Z,23.63
2022-10-18T18:47:39.504Z,24.60
2022-10-18T18:50:49.832Z,27.13
2022-10-18T18:53:53.590Z,32.07
2022-10-18T18:56:57.828Z,27.20
2022-10-18T19:00:00.743Z,29.70
2022-10-18T19:03:05.130Z,30.77
2022-10-18T19:06:11.479Z,29.43
2022-10-18T19:09:20.632Z,24.43
2022-10-18T19:12:23.627Z,25.60
2022-10-18T19:15:26.620Z,20.93
2022-10-18T19:18:30.928Z,19.80
2022-10-18T19:21:36.803Z,21.53
2022-10-18T19:24:39.711Z,28.20
2022-10-18T19:27:42.621Z,20.70
2022-10-18T19:30:49.966Z,19.97
2022-10-18T19:33:59.532Z,16.80
2022-10-18T19:37:02.808Z,18.23
2022-10-18T19:40:07.477Z,15.23
2022-10-18T19:43:10.455Z,21.73
2022-10-18T19:46:13.479Z,19.30
2022-10-18T19:49:18.104Z,18.57
2022-10-18T19:52:21.281Z,17.10
2022-10-18T19:55:25.147Z,19.37
2022-10-18T19:58:28.696Z,13.63
2022-10-18T20:01:32.207Z,15.13
2022-10-18T20:04:38.212Z,17.50
2022-10-18T20:07:42.521Z,18.83
2022-10-18T20:10:45.455Z,17.47
2022-10-18T20:13:48.813Z,16.83
2022-10-18T20:16:51.751Z,12.60
2022-10-18T20:19:56.719Z,17.83
2022-10-18T20:22:59.670Z,14.83
2022-10-18T20:26:05.641Z,13.33
2022-10-18T20:29:08.699Z,14.07
2022-10-18T20:32:11.826Z,17.00
2022-10-18T20:35:16.216Z,16.10
2022-10-18T20:38:19.163Z,19.73
2022-10-18T20:41:25.280Z,13.03
2022-10-18T20:44:30.713Z,12.83
2022-10-18T20:47:34.198Z,9.83
2022-10-18T20:50:43.037Z,18.00
2022-10-18T20:53:46.082Z,9.60
2022-10-18T20:56:49.777Z,13.10
2022-10-18T20:59:52.870Z,16.97
2022-10-18T21:02:58.895Z,11.67
2022-10-18T21:06:09.174Z,15.13
2022-10-18T21:09:14.561Z,15.60
2022-10-18T21:12:17.569Z,11.60
2022-10-18T21:15:20.935Z,12.37
2022-10-18T21:18:26.025Z,11.80
2022-10-18T21:21:30.260Z,18.77
2022-10-18T21:24:33.629Z,18.67
2022-10-18T21:27:36.907Z,10.33
2022-10-18T21:30:39.818Z,14.07
2022-10-18T21:33:43.310Z,13.70
2022-10-18T21:36:49.045Z,16.27
2022-10-18T21:39:52.117Z,21.43
2022-10-18T21:42:55.135Z,17.53
2022-10-18T21:46:00.323Z,10.77
2022-10-18T21:49:03.514Z,14.40
2022-10-18T21:52:07.791Z,14.97
2022-10-18T21:55:10.979Z,13.47
2022-10-18T21:58:13.915Z,13.27
2022-10-18T22:01:19.624Z,14.53
2022-10-18T22:04:25.841Z,15.43
2022-10-18T22:07:30.433Z,13.40
2022-10-18T22:10:34.362Z,8.97
2022-10-18T22:13:37.456Z,18.23
2022-10-18T22:16:40.392Z,14.97
2022-10-18T22:19:43.507Z,13.53
2022-10-18T22:22:47.768Z,12.63
2022-10-18T22:25:50.941Z,7.57
2022-10-18T22:28:59.474Z,14.23
2022-10-18T22:32:02.462Z,14.37
2022-10-18T22:35:06.605Z,8.97
2022-10-18T22:38:10.941Z,13.13
2022-10-18T22:41:14.002Z,12.27
2022-10-18T22:44:17.135Z,11.77
2022-10-18T22:47:20.047Z,13.27
2022-10-18T22:50:23.186Z,13.03
2022-10-18T22:53:27.495Z,14.70
2022-10-18T22:56:30.499Z,13.17
2022-10-18T22:59:33.834Z,10.07
2022-10-18T23:02:36.984Z,11.97
2022-10-18T23:05:40.643Z,10.53
2022-10-18T23:08:44.941Z,11.07
2022-10-18T23:11:48.061Z,10.27
2022-10-18T23:14:50.975Z,11.13
2022-10-18T23:17:54.678Z,14.73
2022-10-18T23:21:03.053Z,10.37
2022-10-18T23:24:07.290Z,12.60
2022-10-18T23:27:10.241Z,12.77
2022-10-18T23:30:13.847Z,7.80
2022-10-18T23:33:16.843Z,13.47
2022-10-18T23:36:20.454Z,8.87
2022-10-18T23:39:25.111Z,16.10
2022-10-18T23:42:28.317Z,13.13
2022-10-18T23:45:31.217Z,11.10
2022-10-18T23:48:34.970Z,12.27
2022-10-18T23:51:38.110Z,11.50
2022-10-18T23:54:42.366Z,9.90
2022-10-18T23:57:45.315Z,16.10
